createdAt,value
2019-03-13T00:06:33.161Z,56.80
2019-03-13T00:14:58.073Z,56.50
2019-03-13T00:23:23.775Z,56.30
2019-03-13T00:31:49.278Z,56.30
2019-03-13T00:40:15.743Z,56.20
2019-03-13T00:48:40.234Z,56.50
2019-03-13T00:57:05.230Z,56.80
2019-03-13T01:05:31.681Z,56.70
2019-03-13T01:13:56.238Z,56.50
2019-03-13T01:22:21.090Z,57.10
2019-03-13T01:30:47.662Z,57.60
2019-03-13T01:39:12.075Z,58.60
2019-03-13T01:47:37.067Z,58.40
2019-03-13T01:56:01.477Z,58.50
2019-03-13T02:04:26.320Z,59.10
2019-03-13T02:12:51.130Z,59.30
2019-03-13T02:21:15.693Z,59.30
2019-03-13T02:29:40.557Z,59.30
2019-03-13T02:38:05.447Z,59.60
2019-03-13T02:46:30.369Z,59.40
2019-03-13T02:54:56.116Z,59.80
2019-03-13T03:03:28.453Z,59.90
2019-03-13T03:11:52.926Z,60.00
2019-03-13T03:20:21.872Z,60.50
2019-03-13T03:28:46.704Z,60.80
2019-03-13T03:37:11.601Z,60.50
2019-03-13T03:45:36.822Z,60.80
2019-03-13T03:54:01.799Z,60.80
2019-03-13T04:02:26.570Z,61.20
2019-03-13T04:10:51.278Z,61.50
2019-03-13T04:19:16.213Z,61.80
2019-03-13T04:27:41.015Z,62.80
2019-03-13T04:36:05.812Z,62.80
2019-03-13T04:44:30.334Z,62.90
2019-03-13T04:52:55.040Z,62.70
2019-03-13T05:01:19.972Z,63.10
2019-03-13T05:09:44.552Z,62.50
2019-03-13T05:18:09.476Z,62.60
2019-03-13T05:26:34.210Z,62.90
2019-03-13T05:34:59.131Z,61.20
2019-03-13T05:43:23.562Z,57.50
2019-03-13T05:51:48.495Z,56.00
2019-03-13T06:00:16.131Z,53.80
2019-03-13T06:08:40.559Z,52.40
2019-03-13T06:17:05.461Z,52.10
2019-03-13T06:25:30.183Z,51.80
2019-03-13T06:33:55.173Z,51.10
2019-03-13T06:42:19.626Z,50.60
2019-03-13T06:50:44.324Z,50.50
2019-03-13T06:59:22.696Z,50.20
2019-03-13T07:07:58.663Z,49.70
2019-03-13T07:16:27.424Z,49.40
2019-03-13T07:24:56.661Z,49.10
2019-03-13T07:33:41.055Z,48.90
2019-03-13T07:42:25.904Z,48.70
2019-03-13T07:50:55.217Z,49.00
2019-03-13T07:59:24.187Z,50.10
2019-03-13T08:08:07.625Z,51.50
2019-03-13T08:16:45.922Z,52.40
2019-03-13T08:34:09.761Z,53.40
2019-03-13T08:42:37.247Z,53.20
2019-03-13T08:51:22.077Z,52.80
2019-03-13T08:59:48.256Z,52.70
2019-03-13T09:08:21.670Z,52.20
2019-03-13T09:16:57.015Z,51.90
2019-03-13T09:25:23.600Z,52.40
2019-03-13T09:33:55.596Z,52.90
2019-03-13T09:43:52.223Z,53.80
2019-03-13T09:51:21.124Z,54.50
2019-03-13T09:59:59.699Z,54.90
2019-03-13T10:08:29.496Z,55.20
2019-03-13T10:17:14.879Z,55.30
2019-03-13T10:26:11.130Z,56.10
2019-03-13T10:34:43.240Z,56.40
2019-03-13T10:43:17.289Z,56.50
2019-03-13T10:51:46.915Z,56.50
2019-03-13T11:00:15.292Z,56.60
2019-03-13T11:09:00.070Z,56.70
2019-03-13T11:17:26.658Z,55.50
2019-03-13T11:25:58.626Z,55.80
2019-03-13T11:34:33.704Z,55.80
2019-03-13T11:43:02.292Z,55.70
2019-03-13T11:51:44.486Z,55.70
2019-03-13T12:00:14.042Z,55.70
2019-03-13T12:08:56.955Z,55.70
2019-03-13T12:26:03.563Z,55.70
2019-03-13T12:34:30.419Z,55.90
2019-03-13T12:43:11.769Z,56.00
2019-03-13T12:51:44.175Z,56.00
2019-03-13T13:00:16.338Z,56.20
2019-03-13T13:08:59.126Z,56.30
2019-03-13T13:17:25.541Z,56.30
2019-03-13T13:25:50.287Z,56.20
2019-03-13T13:34:15.274Z,55.80
2019-03-13T13:42:39.936Z,56.00
2019-03-13T13:51:04.669Z,55.80
2019-03-13T13:59:29.096Z,56.00
2019-03-13T14:07:54.147Z,56.20
2019-03-13T14:16:18.861Z,56.50
2019-03-13T14:24:43.572Z,56.80
2019-03-13T14:33:08.275Z,57.10
2019-03-13T14:41:32.997Z,56.80
2019-03-13T14:49:57.739Z,56.80
2019-03-13T14:58:22.951Z,56.50
2019-03-13T15:06:49.130Z,56.40
2019-03-13T15:15:19.526Z,56.50
2019-03-13T15:23:44.015Z,56.40
2019-03-13T15:32:09.156Z,56.30
2019-03-13T15:40:33.856Z,55.70
2019-03-13T15:48:58.386Z,55.20
2019-03-13T15:57:23.098Z,54.90
2019-03-13T16:05:48.090Z,54.80
2019-03-13T16:14:13.452Z,55.00
2019-03-13T16:22:38.840Z,55.10
2019-03-13T16:31:03.379Z,54.30
2019-03-13T16:39:27.824Z,54.50
2019-03-13T16:47:52.761Z,54.60
2019-03-13T16:56:17.474Z,54.30
2019-03-13T17:04:42.478Z,54.00
2019-03-13T17:13:06.984Z,54.00
2019-03-13T17:21:31.502Z,54.40
2019-03-13T17:29:56.597Z,54.70
2019-03-13T17:38:21.562Z,55.80
2019-03-13T17:46:46.887Z,56.20
2019-03-13T17:55:18.793Z,56.00
2019-03-13T18:03:49.920Z,56.00
2019-03-13T18:12:16.937Z,55.90
2019-03-13T18:20:42.535Z,55.70
2019-03-13T18:29:09.958Z,55.20
2019-03-13T18:37:35.503Z,55.00
2019-03-13T18:46:01.116Z,55.20
2019-03-13T18:54:26.160Z,55.10
2019-03-13T19:02:51.542Z,55.40
2019-03-13T19:11:16.927Z,55.50
2019-03-13T19:19:42.301Z,55.30
2019-03-13T19:28:08.069Z,55.00
2019-03-13T19:36:33.770Z,54.90
2019-03-13T19:45:11.565Z,54.80
2019-03-13T19:53:38.081Z,54.80
2019-03-13T20:02:02.817Z,54.80
2019-03-13T20:10:29.061Z,55.60
2019-03-13T20:18:55.295Z,56.20
2019-03-13T20:27:20.323Z,56.50
2019-03-13T20:35:45.811Z,57.30
2019-03-13T20:44:10.640Z,57.20
2019-03-13T20:52:35.476Z,57.90
2019-03-13T21:01:00.225Z,58.20
2019-03-13T21:09:25.488Z,58.10
2019-03-13T21:17:50.832Z,58.60
2019-03-13T21:26:16.032Z,58.80
2019-03-13T21:34:40.776Z,58.90
2019-03-13T21:43:05.592Z,59.30
2019-03-13T21:51:30.778Z,59.50
2019-03-13T21:59:55.645Z,59.80
2019-03-13T22:08:20.773Z,59.90
2019-03-13T22:16:45.880Z,60.20
2019-03-13T22:25:15.372Z,60.40
2019-03-13T22:33:40.431Z,61.00
2019-03-13T22:42:04.943Z,61.20
2019-03-13T22:50:30.106Z,63.10
2019-03-13T22:58:54.965Z,62.40
2019-03-13T23:07:19.806Z,62.10
2019-03-13T23:15:45.112Z,62.20
2019-03-13T23:24:10.060Z,62.60
2019-03-13T23:32:34.962Z,63.40
2019-03-13T23:41:00.054Z,63.50
2019-03-13T23:49:24.917Z,63.60
2019-03-13T23:57:50.136Z,63.90
